Time,TemperatureF,DewpointF,PressureIn,WindDirection,WindDirectionDegrees,WindSpeedMPH,WindSpeedGustMPH,Humidity,HourlyPrecipIn,Conditions,Clouds,dailyrainin,SolarRadiationWatts/m^2,SoftwareType,DateUTC
2013-01-24 00:14:00,-6.4,-12.0,30.20,SE,145,0.0,0.0,78,0.00,,,0.00,0,weatherlink.com 1.10,2013-01-24 05:14:00,
2013-01-24 00:29:00,-7.1,-13.0,30.20,SSW,204,0.0,0.0,75,0.00,,,0.00,0,weatherlink.com 1.10,2013-01-24 05:29:00,
2013-01-24 00:44:00,-7.3,-14.0,30.20,SSW,202,0.0,0.0,74,0.00,,,0.00,0,weatherlink.com 1.10,2013-01-24 05:44:00,
2013-01-24 00:59:00,-7.7,-14.0,30.21,SSW,203,0.0,0.0,73,0.00,,,0.00,0,weatherlink.com 1.10,2013-01-24 05:59:00,
2013-01-24 01:17:00,-7.9,-14.0,30.20,SSW,213,0.0,0.0,73,0.00,,,0.00,0,weatherlink.com 1.10,2013-01-24 06:17:00,
2013-01-24 01:29:00,-7.8,-15.0,30.21,SSW,199,0.0,0.0,72,0.00,,,0.00,0,weatherlink.com 1.10,2013-01-24 06:29:00,
2013-01-24 01:44:00,-7.9,-15.0,30.21,SW,221,0.0,0.0,72,0.00,,,0.00,0,weatherlink.com 1.10,2013-01-24 06:44:00,
2013-01-24 01:59:00,-7.9,-15.0,30.22,SW,221,0.0,0.0,72,0.00,,,0.00,0,weatherlink.com 1.10,2013-01-24 06:59:00,
2013-01-24 02:14:00,-7.7,-15.0,30.22,SW,221,0.0,0.0,71,0.00,,,0.00,0,weatherlink.com 1.10,2013-01-24 07:14:00,
2013-01-24 02:29:00,-7.8,-15.0,30.22,SW,218,0.0,0.0,71,0.00,,,0.00,0,weatherlink.com 1.10,2013-01-24 07:29:00,
2013-01-24 02:44:00,-7.6,-15.0,30.22,SW,217,0.0,0.0,71,0.00,,,0.00,0,weatherlink.com 1.10,2013-01-24 07:44:00,
2013-01-24 02:59:00,-7.8,-15.0,30.22,SW,217,0.0,0.0,72,0.00,,,0.00,0,weatherlink.com 1.10,2013-01-24 07:59:00,
2013-01-24 03:14:00,-8.2,-14.0,30.22,SW,217,0.0,0.0,75,0.00,,,0.00,0,weatherlink.com 1.10,2013-01-24 08:14:00,
2013-01-24 03:29:00,-8.4,-14.0,30.23,SW,217,0.0,0.0,77,0.00,,,0.00,0,weatherlink.com 1.10,2013-01-24 08:29:00,
2013-01-24 03:45:00,-9.0,-14.0,30.23,SW,217,0.0,0.0,78,0.00,,,0.00,0,weatherlink.com 1.10,2013-01-24 08:45:00,
2013-01-24 04:00:00,-8.6,-14.0,30.23,SW,217,0.0,0.0,78,0.00,,,0.00,0,weatherlink.com 1.10,2013-01-24 09:00:00,
2013-01-24 04:15:00,-9.0,-14.0,30.23,SW,217,0.0,0.0,78,0.00,,,0.00,0,weatherlink.com 1.10,2013-01-24 09:15:00,
2013-01-24 04:30:00,-9.2,-14.0,30.23,SW,217,0.0,0.0,79,0.00,,,0.00,0,weatherlink.com 1.10,2013-01-24 09:30:00,
2013-01-24 04:45:00,-9.4,-14.0,30.24,SW,217,0.0,0.0,79,0.00,,,0.00,0,weatherlink.com 1.10,2013-01-24 09:45:00,
2013-01-24 05:00:00,-9.7,-15.0,30.24,SW,217,0.0,0.0,78,0.00,,,0.00,0,weatherlink.com 1.10,2013-01-24 10:00:00,
2013-01-24 05:15:00,-9.9,-15.0,30.24,SW,217,0.0,0.0,78,0.00,,,0.00,0,weatherlink.com 1.10,2013-01-24 10:15:00,
2013-01-24 05:30:00,-10.1,-15.0,30.25,SW,217,0.0,0.0,79,0.00,,,0.00,0,weatherlink.com 1.10,2013-01-24 10:30:00,
2013-01-24 05:45:00,-10.2,-15.0,30.26,West,269,0.0,0.0,78,0.00,,,0.00,0,weatherlink.com 1.10,2013-01-24 10:45:00,
2013-01-24 06:00:00,-10.0,-15.0,30.26,NNW,342,0.0,0.0,78,0.00,,,0.00,0,weatherlink.com 1.10,2013-01-24 11:00:00,
2013-01-24 06:15:00,-9.8,-15.0,30.27,NNW,342,0.0,0.0,78,0.00,,,0.00,0,weatherlink.com 1.10,2013-01-24 11:15:00,
2013-01-24 06:30:00,-9.6,-15.0,30.27,NNW,342,0.0,0.0,78,0.00,,,0.00,0,weatherlink.com 1.10,2013-01-24 11:30:00,
2013-01-24 06:45:00,-9.8,-15.0,30.27,NNW,342,0.0,0.0,78,0.00,,,0.00,0,weatherlink.com 1.10,2013-01-24 11:45:00,
2013-01-24 07:00:00,-9.7,-15.0,30.28,NNW,344,0.0,0.0,79,0.00,,,0.00,0,weatherlink.com 1.10,2013-01-24 12:00:00,
2013-01-24 07:16:00,-9.5,-14.0,30.28,NNW,344,0.0,0.0,79,0.00,,,0.00,0,weatherlink.com 1.10,2013-01-24 12:16:00,
2013-01-24 07:32:00,-9.5,-14.0,30.29,NNW,348,0.0,0.0,79,0.00,,,0.00,9,weatherlink.com 1.10,2013-01-24 12:32:00,
2013-01-24 07:46:00,-9.3,-14.0,30.30,North,350,0.0,0.0,79,0.00,,,0.00,21,weatherlink.com 1.10,2013-01-24 12:46:00,
2013-01-24 08:01:00,-9.1,-14.0,30.30,North,355,0.0,0.0,79,0.00,,,0.00,30,weatherlink.com 1.10,2013-01-24 13:01:00,
2013-01-24 08:16:00,-8.5,-13.0,30.32,NE,36,0.0,0.0,79,0.00,,,0.00,53,weatherlink.com 1.10,2013-01-24 13:16:00,
2013-01-24 08:31:00,-7.7,-13.0,30.32,NE,36,0.0,0.0,77,0.00,,,0.00,98,weatherlink.com 1.10,2013-01-24 13:31:00,
2013-01-24 08:46:00,-7.1,-13.0,30.32,NE,40,0.0,0.0,76,0.00,,,0.00,113,weatherlink.com 1.10,2013-01-24 13:46:00,
2013-01-24 09:01:00,-6.5,-12.0,30.33,ENE,66,0.0,0.0,75,0.00,,,0.00,156,weatherlink.com 1.10,2013-01-24 14:01:00,
2013-01-24 09:16:00,-6.2,-13.0,30.34,NNE,33,0.0,0.0,73,0.00,,,0.00,199,weatherlink.com 1.10,2013-01-24 14:16:00,
2013-01-24 09:31:00,-5.6,-13.0,30.34,NE,40,0.0,0.0,71,0.00,,,0.00,209,weatherlink.com 1.10,2013-01-24 14:31:00,
2013-01-24 09:46:00,-5.6,-13.0,30.35,NNE,27,0.0,0.0,69,0.00,,,0.00,287,weatherlink.com 1.10,2013-01-24 14:46:00,
2013-01-24 10:01:00,-5.3,-14.0,30.35,NE,55,0.0,0.0,67,0.00,,,0.00,294,weatherlink.com 1.10,2013-01-24 15:01:00,
2013-01-24 10:16:00,-4.9,-13.0,30.36,ENE,78,0.0,0.0,67,0.00,,,0.00,350,weatherlink.com 1.10,2013-01-24 15:16:00,
2013-01-24 10:31:00,-4.0,-13.0,30.37,East,97,0.0,0.0,66,0.00,,,0.00,348,weatherlink.com 1.10,2013-01-24 15:31:00,
2013-01-24 10:46:00,-3.6,-13.0,30.37,NE,36,0.0,0.0,65,0.00,,,0.00,380,weatherlink.com 1.10,2013-01-24 15:46:00,
2013-01-24 11:02:00,-2.8,-13.0,30.37,NE,49,0.0,0.0,63,0.00,,,0.00,339,weatherlink.com 1.10,2013-01-24 16:02:00,
2013-01-24 11:17:00,-2.1,-12.0,30.37,NE,48,0.0,0.0,63,0.00,,,0.00,387,weatherlink.com 1.10,2013-01-24 16:17:00,
2013-01-24 11:32:00,-1.1,-11.0,30.35,NNE,22,0.0,0.0,62,0.00,,,0.00,422,weatherlink.com 1.10,2013-01-24 16:32:00,
2013-01-24 11:47:00,-0.7,-12.0,30.35,WNW,299,0.0,0.0,60,0.00,,,0.00,436,weatherlink.com 1.10,2013-01-24 16:47:00,
2013-01-24 12:02:00,0.3,-11.0,30.34,NE,37,0.0,0.0,60,0.00,,,0.00,441,weatherlink.com 1.10,2013-01-24 17:02:00,
2013-01-24 12:17:00,1.6,-9.0,30.33,NE,36,0.0,0.0,61,0.00,,,0.00,434,weatherlink.com 1.10,2013-01-24 17:17:00,
2013-01-24 12:32:00,1.1,-11.0,30.33,NNE,16,0.0,0.0,58,0.00,,,0.00,436,weatherlink.com 1.10,2013-01-24 17:32:00,
2013-01-24 12:47:00,2.5,-10.0,30.32,NNE,26,0.0,0.0,57,0.00,,,0.00,418,weatherlink.com 1.10,2013-01-24 17:47:00,
2013-01-24 13:02:00,2.0,-11.0,30.30,NNE,30,0.0,0.0,55,0.00,,,0.00,397,weatherlink.com 1.10,2013-01-24 18:02:00,
2013-01-24 13:17:00,3.1,-9.0,30.30,NNE,22,0.0,0.0,56,0.00,,,0.00,359,weatherlink.com 1.10,2013-01-24 18:17:00,
2013-01-24 13:32:00,3.6,-9.0,30.31,NE,39,0.0,0.0,55,0.00,,,0.00,279,weatherlink.com 1.10,2013-01-24 18:32:00,
2013-01-24 13:47:00,4.2,-9.0,30.32,North,360,0.0,0.0,54,0.00,,,0.00,392,weatherlink.com 1.10,2013-01-24 18:47:00,
2013-01-24 14:02:00,4.6,-9.0,30.32,NE,49,0.0,0.0,53,0.00,,,0.00,318,weatherlink.com 1.10,2013-01-24 19:02:00,
2013-01-24 14:18:00,4.8,-9.0,30.32,NE,36,0.0,0.0,53,0.00,,,0.00,260,weatherlink.com 1.10,2013-01-24 19:18:00,
2013-01-24 14:33:00,4.5,-10.0,30.33,NE,36,0.0,0.0,52,0.00,,,0.00,211,weatherlink.com 1.10,2013-01-24 19:33:00,
2013-01-24 14:49:00,4.6,-9.0,30.34,ENE,62,0.0,0.0,53,0.00,,,0.00,158,weatherlink.com 1.10,2013-01-24 19:49:00,
2013-01-24 15:03:00,5.4,-9.0,30.34,NE,44,0.0,0.0,52,0.00,,,0.00,149,weatherlink.com 1.10,2013-01-24 20:03:00,
2013-01-24 15:18:00,5.9,-9.0,30.34,NE,55,0.0,0.0,51,0.00,,,0.00,111,weatherlink.com 1.10,2013-01-24 20:18:00,
2013-01-24 15:33:00,6.7,-8.0,30.34,NE,39,0.0,0.0,50,0.00,,,0.00,109,weatherlink.com 1.10,2013-01-24 20:33:00,
2013-01-24 15:48:00,6.7,-8.0,30.34,NNE,15,0.0,0.0,51,0.00,,,0.00,102,weatherlink.com 1.10,2013-01-24 20:48:00,
2013-01-24 16:03:00,6.6,-9.0,30.35,NE,37,0.0,0.0,50,0.00,,,0.00,60,weatherlink.com 1.10,2013-01-24 21:03:00,
2013-01-24 16:18:00,7.1,-8.0,30.35,NE,38,0.0,0.0,49,0.00,,,0.00,44,weatherlink.com 1.10,2013-01-24 21:18:00,
2013-01-24 16:33:00,7.3,-8.0,30.35,NNE,32,0.0,0.0,50,0.00,,,0.00,25,weatherlink.com 1.10,2013-01-24 21:33:00,
2013-01-24 16:48:00,7.0,-7.0,30.36,NE,39,0.0,0.0,52,0.00,,,0.00,9,weatherlink.com 1.10,2013-01-24 21:48:00,
2013-01-24 17:03:00,6.5,-9.0,30.37,ENE,63,0.0,0.0,49,0.00,,,0.00,0,weatherlink.com 1.10,2013-01-24 22:03:00,
2013-01-24 17:18:00,6.2,-9.0,30.37,NNE,28,0.0,0.0,50,0.00,,,0.00,0,weatherlink.com 1.10,2013-01-24 22:18:00,
2013-01-24 17:33:00,5.9,-9.0,30.38,NE,54,0.0,0.0,50,0.00,,,0.00,0,weatherlink.com 1.10,2013-01-24 22:33:00,
2013-01-24 17:48:00,5.7,-9.0,30.38,NE,47,0.0,0.0,51,0.00,,,0.00,0,weatherlink.com 1.10,2013-01-24 22:48:00,
2013-01-24 18:04:00,5.3,-9.0,30.39,NE,53,0.0,0.0,53,0.00,,,0.00,0,weatherlink.com 1.10,2013-01-24 23:04:00,
2013-01-24 18:19:00,5.3,-9.0,30.40,NNE,24,0.0,0.0,53,0.00,,,0.00,0,weatherlink.com 1.10,2013-01-24 23:19:00,
2013-01-24 18:34:00,5.0,-8.0,30.40,ENE,57,0.0,0.0,55,0.00,,,0.00,0,weatherlink.com 1.10,2013-01-24 23:34:00,
2013-01-24 18:49:00,4.7,-8.0,30.41,East,84,0.0,0.0,56,0.00,,,0.00,0,weatherlink.com 1.10,2013-01-24 23:49:00,
2013-01-24 19:04:00,4.5,-8.0,30.41,East,96,0.0,0.0,57,0.00,,,0.00,0,weatherlink.com 1.10,2013-01-25 00:04:00,
2013-01-24 19:19:00,4.2,-8.0,30.42,East,90,0.0,0.0,58,0.00,,,0.00,0,weatherlink.com 1.10,2013-01-25 00:19:00,
2013-01-24 19:34:00,3.8,-8.0,30.42,ENE,63,0.0,0.0,59,0.00,,,0.00,0,weatherlink.com 1.10,2013-01-25 00:34:00,
2013-01-24 19:49:00,3.5,-8.0,30.43,ENE,61,0.0,0.0,60,0.00,,,0.00,0,weatherlink.com 1.10,2013-01-25 00:49:00,
2013-01-24 20:04:00,3.4,-8.0,30.42,East,85,0.0,0.0,60,0.00,,,0.00,0,weatherlink.com 1.10,2013-01-25 01:04:00,
2013-01-24 20:19:00,3.1,-8.0,30.43,East,82,0.0,0.0,61,0.00,,,0.00,0,weatherlink.com 1.10,2013-01-25 01:19:00,
2013-01-24 20:34:00,2.9,-8.0,30.43,NE,49,0.0,0.0,62,0.00,,,0.00,0,weatherlink.com 1.10,2013-01-25 01:34:00,
2013-01-24 20:49:00,3.1,-8.0,30.43,ENE,59,0.0,0.0,61,0.00,,,0.00,0,weatherlink.com 1.10,2013-01-25 01:49:00,
2013-01-24 21:04:00,3.0,-7.0,30.43,NE,38,0.0,0.0,62,0.00,,,0.00,0,weatherlink.com 1.10,2013-01-25 02:04:00,
2013-01-24 21:19:00,2.9,-7.0,30.43,NE,38,0.0,0.0,63,0.00,,,0.00,0,weatherlink.com 1.10,2013-01-25 02:19:00,
2013-01-24 21:35:00,2.8,-7.0,30.44,ENE,76,0.0,0.0,63,0.00,,,0.00,0,weatherlink.com 1.10,2013-01-25 02:35:00,
2013-01-24 21:50:00,2.5,-8.0,30.44,ENE,69,0.0,0.0,63,0.00,,,0.00,0,weatherlink.com 1.10,2013-01-25 02:50:00,
2013-01-24 22:07:00,2.3,-7.0,30.45,NE,46,0.0,0.0,64,0.00,,,0.00,0,weatherlink.com 1.10,2013-01-25 03:07:00,
2013-01-24 22:20:00,2.0,-8.0,30.45,East,80,0.0,0.0,64,0.00,,,0.00,0,weatherlink.com 1.10,2013-01-25 03:20:00,
2013-01-24 22:35:00,1.7,-8.0,30.45,ENE,59,0.0,0.0,65,0.00,,,0.00,0,weatherlink.com 1.10,2013-01-25 03:35:00,
2013-01-24 22:50:00,1.6,-8.0,30.45,ENE,57,0.0,0.0,65,0.00,,,0.00,0,weatherlink.com 1.10,2013-01-25 03:50:00,
2013-01-24 23:05:00,1.3,-8.0,30.46,NE,50,0.0,0.0,65,0.00,,,0.00,0,weatherlink.com 1.10,2013-01-25 04:05:00,
2013-01-24 23:20:00,1.2,-8.0,30.46,East,90,0.0,0.0,65,0.00,,,0.00,0,weatherlink.com 1.10,2013-01-25 04:20:00,
2013-01-24 23:35:00,1.1,-8.0,30.46,NE,44,0.0,0.0,67,0.00,,,0.00,0,weatherlink.com 1.10,2013-01-25 04:35:00,
2013-01-24 23:50:00,0.9,-8.0,30.46,NE,56,0.0,0.0,66,0.00,,,0.00,0,weatherlink.com 1.10,2013-01-25 04:50:00,